Time;durP1;ratioP1;P1;durP2;ratioP2;P2;SDS_P1;SDS_P2;PMS_P1;PMS_P2;Temp;Humidity;BMP_temperature;BMP_pressure;BME280_temperature;BME280_humidity;BME280_pressure;Samples;Min_cycle;Max_cycle;Signal;HPM_P1;HPM_P2
2021/12/25 00:00:20;;;;;;;57.33;31.50;;;;;;;0.12;93.77;96644.21;1764693;81;21036;-72
2021/12/25 00:02:49;;;;;;;59.25;31.70;;;;;;;0.18;94.34;96647.20;1764580;81;21045;-72
2021/12/25 00:05:16;;;;;;;53.85;30.55;;;;;;;0.22;93.49;96652.39;1762532;81;20966;-72
2021/12/25 00:07:42;;;;;;;54.00;30.12;;;;;;;0.28;93.48;96649.30;1734610;81;21068;-72
2021/12/25 00:10:10;;;;;;;54.75;30.88;;;;;;;0.32;93.87;96646.63;1734378;82;21017;-72
2021/12/25 00:12:37;;;;;;;54.13;29.72;;;;;;;0.37;93.52;96643.95;1734326;83;20985;-72
2021/12/25 00:15:05;;;;;;;49.85;29.12;;;;;;;0.37;93.43;96642.22;1734255;82;21013;-74
2021/12/25 00:17:32;;;;;;;55.43;30.20;;;;;;;0.38;93.37;96648.31;1736549;81;21432;-71
2021/12/25 00:19:59;;;;;;;51.73;29.52;;;;;;;0.37;93.40;96646.13;1734408;82;20978;-71
2021/12/25 00:22:25;;;;;;;54.00;29.65;;;;;;;0.35;93.77;96654.42;1734307;82;20989;-71
2021/12/25 00:24:52;;;;;;;52.93;29.48;;;;;;;0.36;93.75;96655.27;1734273;83;21400;-71
2021/12/25 00:30:08;;;;;;;51.65;29.50;;;;;;;0.36;93.34;96632.69;1760629;81;21049;-71
2021/12/25 00:34:50;;;;;;;49.30;28.38;;;;;;;0.32;92.84;96634.02;1764522;81;20978;-73
2021/12/25 00:37:17;;;;;;;55.70;30.37;;;;;;;0.30;92.91;96644.92;1745760;81;21024;-73
2021/12/25 00:39:43;;;;;;;57.40;28.73;;;;;;;0.28;93.67;96649.30;1734337;82;21019;-72
2021/12/25 00:42:12;;;;;;;54.42;29.40;;;;;;;0.30;93.38;96647.09;1722186;83;21418;-73
2021/12/25 00:44:41;;;;;;;51.33;28.55;;;;;;;0.25;93.32;96641.07;1716896;84;21125;-73
2021/12/25 00:47:08;;;;;;;53.92;28.20;;;;;;;0.21;93.10;96632.39;1750261;81;21443;-73
2021/12/25 00:49:34;;;;;;;49.23;27.02;;;;;;;0.22;93.05;96635.88;1764666;81;21033;-73
2021/12/25 00:52:01;;;;;;;53.65;30.20;;;;;;;0.19;93.08;96636.77;1764744;81;20970;-72
2021/12/25 00:54:28;;;;;;;50.40;29.12;;;;;;;0.17;93.81;96640.27;1764727;81;21475;-73
2021/12/25 00:56:54;;;;;;;54.53;29.20;;;;;;;0.18;93.17;96639.39;1764552;81;21057;-73
2021/12/25 00:59:21;;;;;;;51.73;27.60;;;;;;;0.13;92.93;96629.03;1743824;81;21006;-72
2021/12/25 01:01:48;;;;;;;48.02;28.38;;;;;;;0.11;92.98;96634.25;1734198;83;21014;-73
2021/12/25 01:04:15;;;;;;;51.33;28.47;;;;;;;0.08;93.99;96643.84;1734280;83;21498;-74
2021/12/25 01:06:41;;;;;;;47.27;26.17;;;;;;;0.03;93.49;96645.17;1734300;82;21005;-73
2021/12/25 01:09:09;;;;;;;44.60;26.05;;;;;;;0.01;93.18;96635.22;1734483;82;21044;-71
2021/12/25 01:11:37;;;;;;;45.20;25.23;;;;;;;0.02;93.37;96644.75;1756151;81;21017;-72
2021/12/25 01:14:27;;;;;;;43.25;25.35;;;;;;;-0.03;95.83;96646.08;1764532;81;21053;-72
2021/12/25 01:17:18;;;;;;;34.78;22.42;;;;;;;-0.02;93.95;96645.66;1763183;81;21494;-71
2021/12/25 01:23:10;;;;;;;45.65;24.47;;;;;;;-0.05;94.82;96642.64;1780960;80;21442;-71
2021/12/25 01:38:20;;;;;;;43.10;23.30;;;;;;;0.01;94.77;96656.06;1748711;82;21485;-73
2021/12/25 01:48:48;;;;;;;35.00;19.17;;;;;;;0.15;94.91;96629.86;1778667;80;21426;-72
2021/12/25 01:51:14;;;;;;;35.83;20.55;;;;;;;0.12;94.25;96626.85;1780944;80;21029;-72
2021/12/25 01:53:41;;;;;;;32.73;19.60;;;;;;;0.03;95.63;96631.30;1769893;80;21017;-72
2021/12/25 01:56:08;;;;;;;35.43;19.62;;;;;;;-0.02;94.40;96630.91;1750224;82;21004;-72
2021/12/25 01:58:36;;;;;;;34.78;18.73;;;;;;;-0.13;95.46;96631.42;1750069;82;21040;-72
2021/12/25 02:01:06;;;;;;;31.80;17.87;;;;;;;-0.15;94.69;96622.77;1749963;81;21044;-72
2021/12/25 02:03:36;;;;;;;31.30;17.77;;;;;;;-0.16;94.81;96619.75;1750757;80;21085;-72
2021/12/25 02:06:08;;;;;;;31.23;17.23;;;;;;;-0.19;94.16;96628.45;1770939;80;20996;-72
2021/12/25 02:08:37;;;;;;;28.40;16.70;;;;;;;-0.25;94.57;96623.28;1780497;80;21096;-73
2021/12/25 02:11:05;;;;;;;29.63;16.80;;;;;;;-0.32;94.37;96634.64;1780709;80;20993;-72
2021/12/25 02:13:32;;;;;;;27.85;16.65;;;;;;;-0.37;94.61;96632.51;1753114;80;20965;-72
2021/12/25 02:16:01;;;;;;;28.20;16.35;;;;;;;-0.40;94.51;96642.51;1761522;80;21077;-73
2021/12/25 02:18:43;;;;;;;26.82;15.45;;;;;;;-0.40;94.39;96636.00;1722939;82;21016;-73
2021/12/25 02:21:17;;;;;;;26.97;15.18;;;;;;;-0.38;94.44;96638.59;1737776;82;21557;-72
2021/12/25 02:23:39;;;;;;;;;;;;;;;-0.36;94.84;96652.45;1749167;81;20986;-72
2021/12/25 02:26:07;;;;;;;25.52;15.25;;;;;;;-0.31;94.87;96645.05;1767576;81;20142;-71
2021/12/25 02:28:35;;;;;;;24.98;15.15;;;;;;;-0.30;94.25;96651.09;1767455;81;21020;-72
2021/12/25 02:31:09;;;;;;;26.15;15.53;;;;;;;-0.31;95.74;96651.55;1767471;80;20993;-71
2021/12/25 02:33:37;;;;;;;27.85;15.30;;;;;;;-0.25;94.70;96647.16;1758011;81;20978;-72
2021/12/25 02:36:04;;;;;;;26.40;15.15;;;;;;;-0.25;94.72;96642.80;1737162;81;21481;-72
2021/12/25 02:38:33;;;;;;;19.32;11.73;;;;;;;-0.23;94.50;96642.38;1716043;83;21459;-73
2021/12/25 02:41:00;;;;;;;19.40;11.60;;;;;;;-0.18;94.17;96648.41;1737113;83;21609;-72
2021/12/25 02:43:27;;;;;;;21.15;11.75;;;;;;;-0.18;94.36;96647.10;1736995;83;21446;-72
2021/12/25 02:45:56;;;;;;;21.27;12.88;;;;;;;-0.16;94.57;96647.94;1751323;81;21435;-71
2021/12/25 02:48:24;;;;;;;26.12;13.65;;;;;;;-0.14;94.46;96647.50;1767403;81;20993;-72
2021/12/25 02:50:51;;;;;;;22.42;13.30;;;;;;;-0.15;94.83;96644.48;1767388;80;21129;-72
2021/12/25 02:53:18;;;;;;;20.52;13.08;;;;;;;-0.16;94.59;96641.42;1767420;80;21053;-72
2021/12/25 02:55:46;;;;;;;19.45;10.85;;;;;;;-0.12;94.47;96640.11;1767468;81;21550;-72
2021/12/25 02:58:15;;;;;;;16.05;9.78;;;;;;;-0.12;94.37;96654.43;1753204;81;21009;-72
2021/12/25 03:00:52;;;;;;;22.82;12.15;;;;;;;-0.11;94.22;96648.34;1737121;83;21439;-72
2021/12/25 03:03:20;;;;;;;21.40;13.50;;;;;;;-0.07;94.20;96646.14;1737147;83;21025;-72
2021/12/25 03:05:48;;;;;;;20.40;13.18;;;;;;;-0.05;94.64;96645.25;1737201;83;21013;-72
2021/12/25 03:08:16;;;;;;;19.73;12.03;;;;;;;-0.01;94.11;96645.64;1737123;82;21059;-72
2021/12/25 03:10:53;;;;;;;18.42;11.48;;;;;;;0.02;94.22;96650.39;1755192;81;20989;-72
2021/12/25 03:13:34;;;;;;;21.00;11.88;;;;;;;0.07;94.34;96652.09;1767545;81;21530;-72
2021/12/25 03:16:02;;;;;;;23.30;13.05;;;;;;;0.13;94.97;96656.38;1767507;81;21041;-72
2021/12/25 03:18:35;;;;;;;22.32;13.15;;;;;;;0.24;95.39;96649.73;1776213;80;21040;-72
2021/12/25 03:21:05;;;;;;;22.52;13.70;;;;;;;0.31;95.43;96652.72;1783842;80;21438;-72
2021/12/25 03:23:34;;;;;;;19.30;12.18;;;;;;;0.34;94.46;96650.52;1755670;80;21418;-72
2021/12/25 03:26:05;;;;;;;21.50;12.37;;;;;;;0.32;94.17;96640.11;1751116;81;21048;-72
2021/12/25 03:28:36;;;;;;;18.77;12.40;;;;;;;0.32;94.47;96636.62;1750160;82;21406;-71
2021/12/25 03:31:12;;;;;;;21.95;12.73;;;;;;;0.31;94.37;96646.20;1766538;81;21430;-72
2021/12/25 03:33:34;;;;;;;21.62;13.45;;;;;;;0.30;94.32;96648.39;1780240;80;21001;-72
2021/12/25 03:36:03;;;;;;;24.25;14.13;;;;;;;0.27;94.48;96649.72;1780812;80;21056;-72
2021/12/25 03:38:31;;;;;;;27.27;15.58;;;;;;;0.25;94.36;96645.82;1780842;81;21425;-72
2021/12/25 03:41:00;;;;;;;21.33;13.20;;;;;;;0.23;94.53;96655.84;1765036;81;21426;-72
2021/12/25 03:43:28;;;;;;;27.95;15.50;;;;;;;0.24;94.55;96656.25;1750084;82;20985;-72
2021/12/25 03:45:56;;;;;;;25.65;15.83;;;;;;;0.21;95.20;96657.15;1749938;81;21052;-72
2021/12/25 03:59:12;;;;;;;32.88;17.32;;;;;;;0.15;94.91;96655.91;1780953;80;21461;-72
2021/12/25 04:06:47;;;;;;;49.08;27.75;;;;;;;0.16;95.29;96670.66;1750043;82;21016;-74
2021/12/25 04:09:28;;;;;;;44.55;24.70;;;;;;;0.17;95.68;96672.84;1749136;82;21434;-72
2021/12/25 04:12:00;;;;;;;44.53;24.72;;;;;;;0.18;94.71;96683.26;1750316;82;21617;-72
2021/12/25 04:14:26;;;;;;;42.55;23.40;;;;;;;0.22;95.02;96686.69;1777208;80;21000;-72
2021/12/25 04:16:53;;;;;;;42.67;24.50;;;;;;;0.26;94.58;96686.63;1780951;80;21422;-72
2021/12/25 04:19:21;;;;;;;43.70;24.75;;;;;;;0.28;94.76;96679.27;1772451;80;21443;-72
2021/12/25 04:21:54;;;;;;;42.90;24.00;;;;;;;0.27;94.24;96687.51;1769640;81;21481;-73
2021/12/25 04:24:17;;;;;;;45.60;24.77;;;;;;;0.30;94.46;96686.19;1743680;81;21442;-72
2021/12/25 04:26:46;;;;;;;40.48;22.62;;;;;;;0.31;94.45;96687.91;1739347;82;21061;-72
2021/12/25 04:47:47;;;;;;;28.73;17.25;;;;;;;0.34;94.17;96692.22;1741883;81;20997;-73
2021/12/25 05:01:46;;;;;;;25.12;15.18;;;;;;;0.54;94.26;96705.49;1775769;81;20990;-72
2021/12/25 05:04:16;;;;;;;27.07;15.78;;;;;;;0.57;93.92;96702.83;1763067;81;21019;-72
2021/12/25 05:06:40;;;;;;;26.87;15.95;;;;;;;0.58;94.19;96700.22;1763186;81;21609;-72
2021/12/25 05:09:06;;;;;;;29.12;17.50;;;;;;;0.60;94.03;96688.47;1769830;81;20993;-72
2021/12/25 05:11:33;;;;;;;34.05;18.52;;;;;;;0.61;94.00;96692.80;1769690;81;21023;-72
2021/12/25 05:14:00;;;;;;;42.00;22.90;;;;;;;0.64;94.32;96693.66;1769797;81;21375;-73
2021/12/25 05:16:34;;;;;;;42.10;23.73;;;;;;;0.63;94.14;96704.94;1747087;80;21084;-73
2021/12/25 05:19:02;;;;;;;40.12;23.62;;;;;;;0.64;94.18;96697.56;1736631;82;21017;-72
2021/12/25 05:21:29;;;;;;;40.25;24.10;;;;;;;0.64;94.31;96708.00;1734418;83;21017;-72
2021/12/25 05:23:58;;;;;;;43.85;23.85;;;;;;;0.62;94.57;96707.13;1734347;83;21092;-72
2021/12/25 05:26:26;;;;;;;42.93;23.85;;;;;;;0.65;94.21;96704.50;1715722;82;20985;-72
2021/12/25 05:29:00;;;;;;;39.35;23.60;;;;;;;0.62;94.13;96711.04;1773014;81;21028;-73
2021/12/25 05:31:32;;;;;;;41.92;23.40;;;;;;;0.60;93.91;96718.03;1773647;81;21468;-72
2021/12/25 05:34:08;;;;;;;37.67;21.33;;;;;;;0.57;93.58;96718.47;1764676;81;21435;-72
2021/12/25 05:36:45;;;;;;;41.40;23.40;;;;;;;0.53;93.79;96708.53;1664891;84;21479;-72
2021/12/25 05:39:20;;;;;;;;;;;;;;;0.48;93.99;96712.50;1733295;83;22276;-73
2021/12/25 05:41:47;;;;;;;38.10;21.82;;;;;;;0.44;93.87;96717.31;1734447;82;20123;-72
2021/12/25 05:44:15;;;;;;;37.03;20.50;;;;;;;0.42;93.86;96719.52;1733534;83;21056;-72
2021/12/25 05:46:53;;;;;;;39.45;21.73;;;;;;;0.42;94.02;96722.12;1718697;83;21410;-72
2021/12/25 05:49:20;;;;;;;43.30;26.20;;;;;;;0.40;94.12;96726.04;1759775;81;21031;-72
2021/12/25 05:51:49;;;;;;;52.85;29.45;;;;;;;0.41;94.51;96732.97;1758509;81;20999;-72
2021/12/25 05:54:18;;;;;;;52.40;28.25;;;;;;;0.44;94.96;96728.17;1758934;81;21016;-72
2021/12/25 05:57:03;;;;;;;57.73;29.92;;;;;;;0.47;94.62;96724.23;1759528;81;20976;-72
2021/12/25 05:59:32;;;;;;;52.43;29.48;;;;;;;0.46;94.78;96725.97;1732667;82;21475;-72
2021/12/25 06:02:18;;;;;;;53.68;31.37;;;;;;;0.49;94.48;96719.86;1732674;83;20974;-72
2021/12/25 06:04:46;;;;;;;46.13;26.00;;;;;;;0.49;94.34;96720.73;1741538;82;21057;-72
2021/12/25 06:07:13;;;;;;;39.27;22.62;;;;;;;0.47;93.83;96713.39;1734370;83;20982;-72
2021/12/25 06:09:40;;;;;;;38.45;22.17;;;;;;;0.42;93.57;96713.88;1735034;81;21061;-72
2021/12/25 06:12:10;;;;;;;49.83;27.58;;;;;;;0.41;93.73;96714.72;1734252;83;21006;-72
2021/12/25 06:14:36;;;;;;;49.88;29.67;;;;;;;0.41;93.93;96722.55;1734193;83;21076;-72
2021/12/25 06:17:14;;;;;;;44.70;25.48;;;;;;;0.38;93.46;96722.59;1732581;82;20970;-72
2021/12/25 06:19:46;;;;;;;43.33;23.05;;;;;;;0.36;93.42;96740.84;1735081;81;21018;-72
2021/12/25 06:22:21;;;;;;;46.10;24.65;;;;;;;0.36;93.69;96734.33;1729882;83;21035;-72
2021/12/25 06:24:49;;;;;;;44.60;26.05;;;;;;;0.39;93.50;96730.83;1732677;82;21018;-72
2021/12/25 06:27:20;;;;;;;43.50;25.77;;;;;;;0.37;94.02;96733.45;1728217;83;21018;-72
2021/12/25 06:30:06;;;;;;;34.10;20.85;;;;;;;0.39;93.89;96745.17;1697223;83;20985;-72
2021/12/25 06:32:41;;;;;;;34.50;19.57;;;;;;;0.39;93.90;96747.34;1683652;84;21009;-72
2021/12/25 06:35:25;;;;;;;33.33;20.88;;;;;;;0.41;94.18;96749.07;1711534;83;21024;-72
2021/12/25 06:37:56;;;;;;;37.63;21.62;;;;;;;0.37;94.14;96765.15;1732124;82;21368;-73
2021/12/25 06:40:34;;;;;;;34.38;20.23;;;;;;;0.40;94.26;96769.05;1729680;83;21026;-72
2021/12/25 06:43:01;;;;;;;34.78;20.20;;;;;;;0.41;94.18;96761.64;1731002;83;21021;-72
2021/12/25 06:45:29;;;;;;;35.52;20.72;;;;;;;0.37;94.11;96763.42;1730975;82;20998;-72
2021/12/25 06:47:56;;;;;;;35.58;20.95;;;;;;;0.36;94.14;96756.91;1707985;82;20983;-72
2021/12/25 06:50:36;;;;;;;38.53;23.02;;;;;;;0.34;94.51;96745.19;1657245;84;21436;-77
2021/12/25 06:53:10;;;;;;;;;;;;;;;0.31;94.07;96752.19;1702725;84;21037;-77
2021/12/25 06:55:54;;;;;;;38.63;22.45;;;;;;;0.25;94.22;96749.21;1701387;84;20094;-77
2021/12/25 06:58:22;;;;;;;42.50;25.32;;;;;;;0.22;94.09;96746.20;1678870;83;21435;-77
2021/12/25 07:00:49;;;;;;;43.85;24.90;;;;;;;0.18;94.51;96738.40;1730945;83;20951;-77
2021/12/25 07:03:16;;;;;;;47.53;28.65;;;;;;;0.13;94.08;96743.20;1730908;82;21425;-77
2021/12/25 07:06:01;;;;;;;47.88;27.00;;;;;;;0.15;94.40;96740.59;1731033;83;21014;-77
2021/12/25 07:08:44;;;;;;;46.92;27.80;;;;;;;0.13;93.78;96745.81;1742134;82;21053;-77
2021/12/25 07:11:14;;;;;;;52.30;28.55;;;;;;;0.13;95.05;96765.81;1724637;82;21027;-77
2021/12/25 07:13:45;;;;;;;54.38;30.05;;;;;;;0.17;94.15;96754.92;1689736;84;21033;-77
2021/12/25 07:16:31;;;;;;;45.75;27.02;;;;;;;0.14;94.67;96761.02;1701569;84;21415;-77
2021/12/25 07:19:16;;;;;;;55.00;30.23;;;;;;;0.16;94.56;96761.86;1702783;82;21482;-77
2021/12/25 07:21:45;;;;;;;53.65;30.35;;;;;;;0.21;94.45;96769.20;1724575;82;21108;-77
2021/12/25 07:24:16;;;;;;;56.15;31.87;;;;;;;0.25;95.29;96773.52;1752374;81;21459;-77
2021/12/25 07:26:46;;;;;;;55.55;32.30;;;;;;;0.32;94.74;96778.23;1768297;81;20998;-77
2021/12/25 07:29:23;;;;;;;73.35;46.20;;;;;;;0.43;94.77;96782.48;1766487;81;21399;-77
2021/12/25 07:31:50;;;;;;;61.45;35.03;;;;;;;0.49;94.49;96780.70;1769570;81;21089;-77
2021/12/25 07:34:16;;;;;;;53.28;31.97;;;;;;;0.54;94.42;96777.19;1769822;81;21033;-78
2021/12/25 07:36:42;;;;;;;51.88;29.48;;;;;;;0.61;94.14;96790.15;1749246;81;20985;-77
2021/12/25 07:39:09;;;;;;;54.05;30.75;;;;;;;0.65;94.08;96797.07;1739409;82;21427;-77
2021/12/25 07:41:35;;;;;;;50.95;29.77;;;;;;;0.71;94.41;96795.28;1739476;82;21009;-77
2021/12/25 07:44:04;;;;;;;53.55;31.20;;;;;;;0.75;93.83;96800.90;1739324;81;21005;-78
2021/12/25 07:46:40;;;;;;;52.13;30.70;;;;;;;0.78;93.78;96808.67;1739344;82;21013;-77
2021/12/25 07:49:10;;;;;;;52.35;31.52;;;;;;;0.81;93.99;96807.34;1761831;81;20998;-77
2021/12/25 07:51:35;;;;;;;51.42;31.27;;;;;;;0.88;93.65;96812.07;1740771;81;21549;-78
2021/12/25 07:54:02;;;;;;;53.40;32.50;;;;;;;0.88;93.28;96828.56;1739516;82;21002;-78
2021/12/25 07:56:28;;;;;;;50.95;31.37;;;;;;;0.89;93.40;96822.49;1739404;82;21017;-78
2021/12/25 07:58:55;;;;;;;50.88;30.92;;;;;;;0.96;93.88;96823.30;1739284;82;22099;-79
2021/12/25 08:01:21;;;;;;;54.60;30.95;;;;;;;1.00;94.14;96828.04;1768650;81;21006;-78
2021/12/25 08:03:48;;;;;;;52.88;31.30;;;;;;;1.04;93.71;96821.91;1769997;80;20994;-79
2021/12/25 08:06:14;;;;;;;52.67;31.85;;;;;;;1.09;93.48;96825.34;1769740;81;20993;-79
2021/12/25 08:08:42;;;;;;;54.70;32.88;;;;;;;1.13;94.22;96822.25;1769826;80;21032;-76
2021/12/25 08:11:08;;;;;;;55.60;32.00;;;;;;;1.21;93.93;96819.55;1766952;81;21052;-76
2021/12/25 08:13:37;;;;;;;56.10;33.15;;;;;;;1.28;94.04;96809.02;1739383;82;21013;-77
2021/12/25 08:16:04;;;;;;;65.30;36.90;;;;;;;1.36;93.99;96815.91;1739394;82;21002;-77
2021/12/25 08:18:31;;;;;;;60.05;36.80;;;;;;;1.39;93.80;96818.47;1739445;82;21029;-77
2021/12/25 08:21:18;;;;;;;59.73;35.08;;;;;;;1.39;93.85;96819.77;1750328;82;21063;-76
2021/12/25 08:24:03;;;;;;;60.25;34.92;;;;;;;1.44;93.56;96817.97;1754958;82;21040;-78
2021/12/25 08:26:50;;;;;;;56.58;33.48;;;;;;;1.49;93.55;96825.30;1737316;83;21006;-77
2021/12/25 08:29:36;;;;;;;58.85;34.45;;;;;;;1.56;93.43;96829.58;1737894;81;20994;-77
2021/12/25 08:32:21;;;;;;;52.88;32.30;;;;;;;1.68;93.41;96812.89;1737142;83;21048;-77
2021/12/25 08:35:03;;;;;;;58.25;35.23;;;;;;;1.69;93.32;96831.59;1733986;82;21101;-77
2021/12/25 08:37:31;;;;;;;58.83;34.67;;;;;;;1.81;93.43;96828.38;1739813;81;21025;-77
2021/12/25 08:39:58;;;;;;;55.63;34.33;;;;;;;2.00;93.57;96818.98;1767542;80;21009;-77
2021/12/25 08:42:25;;;;;;;54.48;33.08;;;;;;;2.12;93.51;96824.05;1767694;81;20989;-77
2021/12/25 08:47:27;;;;;;;54.30;33.70;;;;;;;2.26;93.44;96825.57;1753747;81;21049;-78
2021/12/25 08:49:56;;;;;;;54.20;33.83;;;;;;;2.29;93.17;96830.77;1765388;81;21056;-78
2021/12/25 08:52:25;;;;;;;58.08;36.58;;;;;;;2.40;94.02;96827.99;1767611;81;21028;-78
2021/12/25 08:54:52;;;;;;;52.98;33.95;;;;;;;2.45;93.52;96821.78;1767476;80;21048;-78
2021/12/25 08:57:25;;;;;;;52.33;34.18;;;;;;;2.50;93.50;96830.41;1747671;81;20985;-78
2021/12/25 08:59:54;;;;;;;54.63;35.08;;;;;;;2.47;92.94;96842.25;1737775;81;21005;-78
2021/12/25 09:02:22;;;;;;;56.30;33.73;;;;;;;2.43;92.75;96835.77;1737382;81;21055;-78
2021/12/25 09:04:51;;;;;;;59.45;35.85;;;;;;;2.43;92.40;96835.34;1737230;83;21033;-78
2021/12/25 09:07:19;;;;;;;56.40;32.53;;;;;;;2.46;92.35;96833.96;1737293;82;21029;-78
2021/12/25 09:09:46;;;;;;;55.63;35.40;;;;;;;2.50;92.65;96838.73;1759483;81;21304;-78
2021/12/25 09:12:15;;;;;;;57.88;35.65;;;;;;;2.51;92.07;96827.37;1767534;81;20993;-78
2021/12/25 09:14:41;;;;;;;57.67;35.90;;;;;;;2.49;92.22;96814.31;1767603;81;21033;-78
2021/12/25 09:17:09;;;;;;;59.53;35.80;;;;;;;2.42;92.17;96812.70;1767403;80;20977;-77
2021/12/25 09:19:36;;;;;;;57.08;36.08;;;;;;;2.40;92.57;96814.45;1767624;80;21028;-77
2021/12/25 09:22:04;;;;;;;58.98;37.20;;;;;;;2.46;92.73;96815.66;1745113;81;20985;-77
2021/12/25 09:24:31;;;;;;;63.98;38.40;;;;;;;2.47;91.94;96809.99;1739252;82;21057;-76
2021/12/25 09:26:58;;;;;;;59.63;35.13;;;;;;;2.45;92.25;96802.63;1739305;82;20985;-76
2021/12/25 09:29:25;;;;;;;58.78;36.35;;;;;;;2.43;92.51;96803.95;1739149;82;21344;-77
2021/12/25 09:31:52;;;;;;;55.52;35.78;;;;;;;2.50;92.05;96805.57;1739223;82;21474;-79
2021/12/25 09:34:18;;;;;;;61.35;35.33;;;;;;;2.49;91.78;96806.93;1740067;81;21048;-77
2021/12/25 09:36:45;;;;;;;61.37;37.98;;;;;;;2.52;91.83;96800.31;1739132;82;20970;-77
2021/12/25 09:39:11;;;;;;;54.35;35.83;;;;;;;2.53;91.68;96798.11;1739197;82;20970;-76
2021/12/25 09:41:38;;;;;;;59.10;37.30;;;;;;;2.53;91.73;96811.19;1739291;82;20995;-77
2021/12/25 09:44:06;;;;;;;57.75;36.93;;;;;;;2.53;91.74;96795.96;1739173;82;21005;-77
2021/12/25 09:46:33;;;;;;;59.85;36.40;;;;;;;2.52;91.61;96802.94;1764106;81;20966;-77
2021/12/25 09:49:01;;;;;;;60.50;37.75;;;;;;;2.54;91.79;96802.91;1769632;81;21020;-77
2021/12/25 09:51:27;;;;;;;63.55;39.20;;;;;;;2.58;91.63;96804.12;1769618;81;21407;-77
2021/12/25 09:54:06;;;;;;;58.85;37.63;;;;;;;2.58;91.42;96804.59;1760315;80;20966;-77
2021/12/25 09:56:36;;;;;;;57.83;36.35;;;;;;;2.54;92.61;96805.53;1739340;82;21424;-77
2021/12/25 09:59:04;;;;;;;61.60;37.70;;;;;;;2.51;92.07;96803.83;1739118;82;20961;-77
2021/12/25 10:01:47;;;;;;;55.45;35.13;;;;;;;2.52;92.05;96789.86;1739225;82;21029;-77
2021/12/25 10:04:36;;;;;;;56.85;35.40;;;;;;;2.49;92.18;96785.54;1755558;81;20978;-78
2021/12/25 10:07:19;;;;;;;56.13;35.28;;;;;;;2.50;92.48;96791.65;1768587;81;21017;-76
2021/12/25 10:10:03;;;;;;;55.90;36.28;;;;;;;2.53;92.62;96799.89;1769658;80;21045;-77
2021/12/25 10:12:38;;;;;;;57.45;37.05;;;;;;;2.57;92.26;96782.80;1769827;81;21068;-78
2021/12/25 10:15:08;;;;;;;55.08;35.25;;;;;;;2.59;91.80;96782.34;1769581;81;21406;-78
2021/12/25 10:17:35;;;;;;;57.15;36.45;;;;;;;2.62;92.43;96777.50;1740956;81;20973;-77
2021/12/25 10:20:12;;;;;;;57.45;37.93;;;;;;;2.71;91.99;96779.95;1718229;82;21049;-77
2021/12/25 10:23:04;;;;;;;59.27;37.30;;;;;;;2.83;92.13;96789.31;1739503;81;21454;-77
2021/12/25 10:25:38;;;;;;;59.18;36.38;;;;;;;2.98;92.55;96780.33;1739257;82;20989;-77
2021/12/25 10:28:07;;;;;;;57.53;37.73;;;;;;;3.12;92.00;96773.51;1744747;81;21001;-77
2021/12/25 10:30:58;;;;;;;60.90;38.80;;;;;;;3.14;91.43;96783.52;1769540;81;21065;-78
2021/12/25 10:33:39;;;;;;;68.07;42.00;;;;;;;3.15;91.66;96784.36;1769460;80;21005;-77
2021/12/25 10:36:11;;;;;;;60.45;39.40;;;;;;;3.14;91.40;96778.28;1769488;81;21005;-78
2021/12/25 10:38:40;;;;;;;59.98;37.83;;;;;;;3.07;90.94;96755.72;1748960;81;21427;-77
2021/12/25 10:41:14;;;;;;;61.48;39.23;;;;;;;3.00;90.80;96752.82;1739208;82;21021;-78
2021/12/25 10:43:42;;;;;;;64.72;40.50;;;;;;;2.96;91.44;96769.03;1737962;82;21017;-78
2021/12/25 10:46:10;;;;;;;61.23;38.55;;;;;;;2.96;91.21;96763.80;1739207;82;20997;-78
2021/12/25 10:48:37;;;;;;;64.00;37.28;;;;;;;2.95;90.98;96759.44;1739241;82;21005;-78
2021/12/25 10:51:04;;;;;;;58.60;36.13;;;;;;;2.97;91.29;96753.74;1745325;81;21016;-78
2021/12/25 10:53:41;;;;;;;56.40;36.05;;;;;;;3.03;91.60;96755.36;1739405;81;21017;-78
2021/12/25 10:56:14;;;;;;;62.60;37.95;;;;;;;3.09;91.34;96757.88;1738176;82;21006;-78
2021/12/25 10:58:43;;;;;;;58.05;36.00;;;;;;;3.08;91.23;96757.47;1739187;82;21076;-78
2021/12/25 11:01:14;;;;;;;58.08;34.58;;;;;;;3.10;91.61;96750.87;1739132;82;21048;-78
2021/12/25 11:03:44;;;;;;;54.80;34.50;;;;;;;3.12;91.67;96750.41;1762347;81;21037;-78
2021/12/25 11:06:18;;;;;;;55.55;34.78;;;;;;;3.13;91.67;96753.00;1769613;81;21069;-78
2021/12/25 11:08:47;;;;;;;53.80;34.85;;;;;;;3.16;91.79;96744.22;1769618;81;21411;-77
2021/12/25 11:11:18;;;;;;;62.20;38.20;;;;;;;3.24;92.28;96741.45;1769580;81;21025;-77
2021/12/25 11:13:49;;;;;;;61.13;37.05;;;;;;;3.24;91.93;96746.22;1769641;81;21001;-77
2021/12/25 11:16:26;;;;;;;66.85;41.65;;;;;;;3.18;91.92;96738.50;1742734;81;21037;-77
2021/12/25 11:19:09;;;;;;;68.10;46.20;;;;;;;3.23;92.46;96731.84;1738923;82;21096;-77
2021/12/25 11:21:50;;;;;;;89.90;51.53;;;;;;;3.24;91.96;96727.89;1739048;82;21732;-77
2021/12/25 11:24:27;;;;;;;78.83;45.90;;;;;;;3.15;91.39;96721.09;1739429;82;21089;-76
2021/12/25 11:27:03;;;;;;;71.45;42.83;;;;;;;3.06;91.27;96719.12;1750415;81;21013;-78
2021/12/25 11:29:31;;;;;;;71.85;43.05;;;;;;;2.99;91.51;96719.23;1769596;81;20998;-77
2021/12/25 11:32:00;;;;;;;71.42;44.05;;;;;;;2.95;91.71;96734.57;1769705;81;21032;-77
2021/12/25 11:34:28;;;;;;;70.97;42.80;;;;;;;2.92;91.34;96729.84;1768737;81;20958;-77
2021/12/25 11:36:58;;;;;;;71.90;42.93;;;;;;;2.86;91.24;96733.47;1739167;82;20997;-77
2021/12/25 11:39:28;;;;;;;70.35;44.05;;;;;;;2.81;91.48;96720.89;1739293;82;21447;-77
2021/12/25 11:42:07;;;;;;;76.60;45.15;;;;;;;2.79;91.66;96724.87;1739484;82;21046;-77
2021/12/25 11:44:47;;;;;;;71.55;45.55;;;;;;;2.77;91.39;96708.31;1751436;81;21415;-77
2021/12/25 11:47:42;;;;;;;71.77;42.75;;;;;;;2.73;91.28;96707.52;1769649;81;21483;-77
2021/12/25 11:50:14;;;;;;;81.30;46.60;;;;;;;2.70;91.44;96706.73;1768438;81;21057;-77
2021/12/25 11:52:50;;;;;;;82.75;47.85;;;;;;;2.68;91.57;96709.80;1769894;81;21432;-77
2021/12/25 11:58:35;;;;;;;80.03;50.25;;;;;;;2.61;91.12;96716.89;1739351;82;21479;-77
2021/12/25 12:00:51;;;;;;;83.62;49.58;;;;;;;2.53;91.97;96720.95;1736754;82;21045;-78
2021/12/25 12:03:44;;;;;;;84.30;50.78;;;;;;;2.54;91.40;96721.83;1739222;82;20989;-78
2021/12/25 12:06:13;;;;;;;80.77;48.08;;;;;;;2.51;91.71;96722.75;1743124;81;21052;-77
2021/12/25 12:09:00;;;;;;;79.07;49.08;;;;;;;2.47;91.41;96712.80;1739271;82;20982;-77
2021/12/25 12:11:45;;;;;;;88.07;50.78;;;;;;;2.46;91.18;96716.28;1720263;82;21311;-77
2021/12/25 12:14:21;;;;;;;86.90;51.75;;;;;;;2.40;91.40;96718.17;1721732;82;21044;-77
2021/12/25 12:17:04;;;;;;;85.30;49.88;;;;;;;2.39;91.79;96718.59;1689452;85;21044;-77
2021/12/25 12:19:41;;;;;;;86.97;50.33;;;;;;;2.39;91.44;96706.84;1762038;81;21044;-77
2021/12/25 12:27:12;;;;;;;83.15;50.92;;;;;;;2.42;91.45;96701.56;1754199;80;21431;-78
2021/12/25 12:29:44;;;;;;;79.30;48.25;;;;;;;2.43;91.65;96701.97;1739292;82;21009;-78
2021/12/25 12:32:26;;;;;;;81.05;47.85;;;;;;;2.42;92.59;96705.48;1739261;82;21103;-78
2021/12/25 12:34:53;;;;;;;84.75;47.88;;;;;;;2.48;92.20;96705.36;1739294;82;21091;-78
2021/12/25 12:37:24;;;;;;;77.03;47.10;;;;;;;2.54;92.21;96704.41;1756064;81;21006;-78
2021/12/25 12:40:00;;;;;;;74.22;47.20;;;;;;;2.57;91.97;96697.78;1769754;80;21045;-78
2021/12/25 12:42:48;;;;;;;79.27;46.98;;;;;;;2.63;92.79;96692.90;1769712;81;20989;-78
2021/12/25 12:45:25;;;;;;;78.55;47.58;;;;;;;2.73;92.67;96683.98;1769404;80;21037;-77
2021/12/25 12:48:21;;;;;;;77.03;46.30;;;;;;;2.78;92.60;96685.18;1769721;81;20997;-77
2021/12/25 12:50:55;;;;;;;77.78;45.05;;;;;;;2.83;92.65;96704.73;1769060;81;20993;-77
2021/12/25 12:53:24;;;;;;;;;;;;;;;2.87;92.57;96686.77;1758730;80;21013;-77
2021/12/25 12:55:54;;;;;;;74.25;44.80;;;;;;;2.87;92.22;96682.38;1739356;82;20130;-77
2021/12/25 12:58:25;;;;;;;71.07;43.87;;;;;;;2.90;92.88;96680.16;1738029;82;21092;-77
2021/12/25 13:01:02;;;;;;;74.45;44.05;;;;;;;2.95;92.40;96677.46;1747408;81;20969;-78
2021/12/25 13:03:30;;;;;;;71.75;42.48;;;;;;;2.93;92.25;96679.23;1769377;81;21165;-78
2021/12/25 13:06:10;;;;;;;72.75;44.13;;;;;;;2.95;92.72;96688.77;1769730;81;20989;-77
2021/12/25 13:08:36;;;;;;;71.55;43.75;;;;;;;3.04;92.89;96666.34;1766846;81;21017;-77